Time;durP1;ratioP1;P1;durP2;ratioP2;P2;SDS_P1;SDS_P2;PMS_P1;PMS_P2;Temp;Humidity;BMP_temperature;BMP_pressure;BME280_temperature;BME280_humidity;BME280_pressure;Samples;Min_cycle;Max_cycle;Signal;HPM_P1;HPM_P2
2023/01/18 00:00:02;;;;;;;11.73;7.75;;;;;;;;;;5065063;28;20391;-40
2023/01/18 00:02:28;;;;;;;11.27;6.55;;;;;;;;;;5059743;28;20028;-40
2023/01/18 00:04:53;;;;;;;10.48;6.90;;;;;;;;;;5063977;28;20532;-42
2023/01/18 00:07:18;;;;;;;11.98;7.78;;;;;;;;;;5065832;28;20031;-40
2023/01/18 00:09:44;;;;;;;14.10;8.48;;;;;;;;;;5060136;28;20033;-41
2023/01/18 00:12:09;;;;;;;13.25;7.88;;;;;;;;;;5059213;28;20033;-38
2023/01/18 00:14:34;;;;;;;13.88;6.38;;;;;;;;;;5063382;28;20481;-40
2023/01/18 00:17:00;;;;;;;18.77;10.80;;;;;;;;;;5064379;28;20044;-40
2023/01/18 00:19:25;;;;;;;10.57;7.00;;;;;;;;;;5060147;28;20063;-40
2023/01/18 00:21:54;;;;;;;13.40;6.72;;;;;;;;;;5063100;28;20039;-40
2023/01/18 00:24:22;;;;;;;11.90;6.18;;;;;;;;;;5064684;28;20052;-40
2023/01/18 00:26:48;;;;;;;6.68;5.57;;;;;;;;;;5064102;28;20024;-40
2023/01/18 00:29:14;;;;;;;6.88;4.90;;;;;;;;;;5063670;28;20619;-40
2023/01/18 00:31:40;;;;;;;11.10;6.75;;;;;;;;;;5064186;28;20127;-41
2023/01/18 00:34:06;;;;;;;11.10;6.30;;;;;;;;;;5063196;28;20488;-39
2023/01/18 00:36:32;;;;;;;8.93;5.25;;;;;;;;;;5065254;28;20024;-40
2023/01/18 00:38:58;;;;;;;5.57;3.67;;;;;;;;;;5061484;28;20511;-40
2023/01/18 00:41:23;;;;;;;5.88;3.40;;;;;;;;;;5059418;28;20100;-40
2023/01/18 00:43:50;;;;;;;3.58;3.13;;;;;;;;;;5064179;28;20041;-41
2023/01/18 00:46:19;;;;;;;8.63;3.80;;;;;;;;;;5063790;28;20122;-42
2023/01/18 00:48:44;;;;;;;5.03;3.60;;;;;;;;;;5062331;28;20051;-40
2023/01/18 00:51:13;;;;;;;4.18;3.13;;;;;;;;;;5063354;28;20488;-41
2023/01/18 00:53:39;;;;;;;5.80;4.20;;;;;;;;;;5059152;28;20041;-40
2023/01/18 00:56:09;;;;;;;8.10;4.35;;;;;;;;;;5061665;28;20075;-40
2023/01/18 00:58:36;;;;;;;5.75;3.70;;;;;;;;;;5066791;28;20461;-40
2023/01/18 01:01:02;;;;;;;6.50;3.38;;;;;;;;;;5066971;28;20368;-41
2023/01/18 01:03:27;;;;;;;5.82;3.55;;;;;;;;;;5067283;28;20040;-40
2023/01/18 01:08:37;;;;;;;3.50;3.05;;;;;;;;;;5064250;28;20131;-40
2023/01/18 01:11:11;;;;;;;3.20;2.90;;;;;;;;;;5065514;28;20129;-41
2023/01/18 01:27:19;;;;;;;3.63;2.70;;;;;;;;;;5067455;28;20032;-40
2023/01/18 01:29:44;;;;;;;4.40;3.05;;;;;;;;;;5064363;28;20124;-40
2023/01/18 01:32:10;;;;;;;3.00;2.47;;;;;;;;;;5065848;28;20040;-39
2023/01/18 01:34:35;;;;;;;2.25;2.05;;;;;;;;;;5066340;28;20671;-40
2023/01/18 01:37:02;;;;;;;2.35;2.15;;;;;;;;;;5065947;28;20788;-40
2023/01/18 01:39:27;;;;;;;3.03;2.10;;;;;;;;;;5065863;28;20412;-40
2023/01/18 01:41:52;;;;;;;1.95;1.80;;;;;;;;;;5068138;28;20044;-43
2023/01/18 01:44:23;;;;;;;2.47;2.28;;;;;;;;;;5064999;28;20040;-40
2023/01/18 01:46:55;;;;;;;3.08;2.00;;;;;;;;;;5061736;28;20029;-40
2023/01/18 01:49:32;;;;;;;2.92;1.83;;;;;;;;;;5065855;28;20530;-40
2023/01/18 01:52:01;;;;;;;2.75;1.95;;;;;;;;;;5065254;28;20028;-40
2023/01/18 01:54:31;;;;;;;4.32;2.10;;;;;;;;;;5069086;28;20041;-43
2023/01/18 01:57:04;;;;;;;3.83;2.13;;;;;;;;;;5066196;28;20024;-43
2023/01/18 01:59:32;;;;;;;1.70;1.60;;;;;;;;;;5063604;28;20074;-40
2023/01/18 02:01:58;;;;;;;3.75;1.50;;;;;;;;;;5065590;28;20119;-40
2023/01/18 02:04:23;;;;;;;1.40;1.30;;;;;;;;;;5065195;28;20568;-40
2023/01/18 02:06:49;;;;;;;1.48;1.38;;;;;;;;;;5066831;28;20107;-40
2023/01/18 02:09:21;;;;;;;1.20;1.10;;;;;;;;;;5061373;28;20131;-41
2023/01/18 02:11:47;;;;;;;;;;;;;;;;;;5064408;28;20028;-43
2023/01/18 02:14:15;;;;;;;1.13;1.10;;;;;;;;;;5064564;28;19921;-40
2023/01/18 02:16:40;;;;;;;1.60;1.08;;;;;;;;;;5064061;28;20041;-39
2023/01/18 02:19:33;;;;;;;0.98;0.98;;;;;;;;;;5065312;28;20048;-40
2023/01/18 02:22:08;;;;;;;0.90;0.90;;;;;;;;;;5064001;28;20028;-39
2023/01/18 02:24:52;;;;;;;1.15;1.00;;;;;;;;;;5067269;28;20119;-40
2023/01/18 02:27:22;;;;;;;0.90;0.90;;;;;;;;;;5063411;28;20029;-40
2023/01/18 02:29:52;;;;;;;0.55;0.55;;;;;;;;;;5067765;28;20743;-40
2023/01/18 02:32:33;;;;;;;1.45;1.35;;;;;;;;;;5062399;28;20066;-39
2023/01/18 02:35:19;;;;;;;1.20;1.10;;;;;;;;;;5065106;28;20526;-40
2023/01/18 02:38:04;;;;;;;1.05;1.00;;;;;;;;;;5063278;28;20812;-40
2023/01/18 02:40:32;;;;;;;1.10;1.00;;;;;;;;;;5053797;28;20031;-39
2023/01/18 02:48:37;;;;;;;0.98;0.77;;;;;;;;;;5065907;28;20494;-40
2023/01/18 02:51:03;;;;;;;0.70;0.70;;;;;;;;;;5064488;28;20461;-40
2023/01/18 02:53:30;;;;;;;0.90;0.80;;;;;;;;;;5064461;28;20036;-45
2023/01/18 02:56:33;;;;;;;1.83;1.17;;;;;;;;;;5066336;28;20032;-39
2023/01/18 02:59:10;;;;;;;1.75;0.65;;;;;;;;;;5066432;28;20044;-41
2023/01/18 03:01:41;;;;;;;3.25;1.10;;;;;;;;;;5065519;28;20024;-40
2023/01/18 03:04:21;;;;;;;0.95;0.95;;;;;;;;;;5061529;28;20658;-39
2023/01/18 03:06:52;;;;;;;0.90;0.90;;;;;;;;;;5065078;28;20098;-39
2023/01/18 03:09:20;;;;;;;1.48;0.82;;;;;;;;;;5061191;28;20123;-40
2023/01/18 03:11:53;;;;;;;1.55;1.30;;;;;;;;;;5065575;28;20103;-43
2023/01/18 03:14:45;;;;;;;1.08;0.98;;;;;;;;;;5065857;28;20140;-40
2023/01/18 03:17:22;;;;;;;1.30;1.10;;;;;;;;;;5064871;28;20047;-40
2023/01/18 03:20:07;;;;;;;1.25;1.00;;;;;;;;;;5063461;28;20027;-39
2023/01/18 03:25:47;;;;;;;0.82;0.82;;;;;;;;;;5064059;28;20036;-40
2023/01/18 03:34:01;;;;;;;1.23;1.23;;;;;;;;;;5063528;28;20089;-40
2023/01/18 03:36:32;;;;;;;2.53;1.35;;;;;;;;;;5063070;28;20036;-40
2023/01/18 03:39:04;;;;;;;1.10;1.10;;;;;;;;;;5064793;28;20520;-40
2023/01/18 03:41:34;;;;;;;1.70;1.33;;;;;;;;;;5065417;28;20024;-39
2023/01/18 03:44:07;;;;;;;1.33;1.33;;;;;;;;;;5064124;28;20268;-39
2023/01/18 03:46:34;;;;;;;1.98;1.60;;;;;;;;;;5066417;28;20021;-40
2023/01/18 03:48:59;;;;;;;2.10;1.90;;;;;;;;;;5063980;28;20037;-40
2023/01/18 03:51:46;;;;;;;2.00;1.80;;;;;;;;;;5066386;28;20472;-42
2023/01/18 03:54:33;;;;;;;1.95;1.73;;;;;;;;;;5060400;28;20119;-40
2023/01/18 03:57:04;;;;;;;1.45;1.35;;;;;;;;;;5066509;28;20028;-43
2023/01/18 03:59:35;;;;;;;1.42;1.33;;;;;;;;;;5062877;28;20408;-40
2023/01/18 04:02:02;;;;;;;2.30;2.00;;;;;;;;;;5063028;28;20454;-40
2023/01/18 04:04:28;;;;;;;2.08;1.88;;;;;;;;;;5065246;28;20037;-40
2023/01/18 04:06:53;;;;;;;1.80;1.63;;;;;;;;;;5062902;28;20016;-40
2023/01/18 04:09:19;;;;;;;1.48;1.38;;;;;;;;;;5064412;28;20040;-39
2023/01/18 04:11:44;;;;;;;2.90;1.48;;;;;;;;;;5062921;28;20025;-40
2023/01/18 04:14:09;;;;;;;1.88;1.70;;;;;;;;;;5063759;28;20540;-42
2023/01/18 04:16:35;;;;;;;1.48;1.38;;;;;;;;;;5064234;28;20035;-46
2023/01/18 04:19:00;;;;;;;1.33;1.20;;;;;;;;;;5061137;28;20045;-40
2023/01/18 04:21:25;;;;;;;1.60;1.50;;;;;;;;;;5062772;28;20086;-39
2023/01/18 04:23:51;;;;;;;2.53;1.83;;;;;;;;;;5064349;28;20514;-40
2023/01/18 04:26:16;;;;;;;1.50;1.40;;;;;;;;;;5065212;28;20021;-40
2023/01/18 04:28:42;;;;;;;1.20;1.10;;;;;;;;;;5063202;28;20461;-40
2023/01/18 04:31:07;;;;;;;2.78;1.20;;;;;;;;;;5063145;28;20564;-40
2023/01/18 04:33:33;;;;;;;1.27;1.17;;;;;;;;;;5066806;28;20036;-40
2023/01/18 04:35:58;;;;;;;1.77;1.55;;;;;;;;;;5066761;28;20024;-40
2023/01/18 04:38:24;;;;;;;3.60;1.08;;;;;;;;;;5069693;28;20124;-39
2023/01/18 04:40:49;;;;;;;1.23;1.13;;;;;;;;;;5069012;28;20033;-40
2023/01/18 04:43:15;;;;;;;1.20;1.10;;;;;;;;;;5066998;28;20032;-40
2023/01/18 04:45:40;;;;;;;1.05;1.05;;;;;;;;;;5066803;28;20036;-40
2023/01/18 04:48:06;;;;;;;3.15;1.10;;;;;;;;;;5067531;28;20056;-39
2023/01/18 04:50:31;;;;;;;1.27;1.17;;;;;;;;;;5069035;28;20491;-40
2023/01/18 04:52:57;;;;;;;1.48;1.20;;;;;;;;;;5066441;28;20040;-39
2023/01/18 04:55:22;;;;;;;2.00;1.50;;;;;;;;;;5069954;28;20025;-40
2023/01/18 04:57:54;;;;;;;1.35;1.25;;;;;;;;;;5067966;28;20041;-40
2023/01/18 05:00:21;;;;;;;1.10;1.10;;;;;;;;;;5064740;28;20499;-37
2023/01/18 05:02:47;;;;;;;1.63;1.48;;;;;;;;;;5069648;28;20051;-40
2023/01/18 05:05:12;;;;;;;3.78;2.95;;;;;;;;;;5067704;28;20063;-40
2023/01/18 05:07:38;;;;;;;7.38;4.20;;;;;;;;;;5068103;28;20036;-39
2023/01/18 05:10:03;;;;;;;7.78;4.22;;;;;;;;;;5065043;28;20414;-40
2023/01/18 05:12:29;;;;;;;6.88;4.03;;;;;;;;;;5065440;28;20131;-40
2023/01/18 05:14:55;;;;;;;8.07;3.60;;;;;;;;;;5066854;28;20039;-40
2023/01/18 05:17:26;;;;;;;6.45;3.72;;;;;;;;;;5066382;28;20028;-40
2023/01/18 05:19:54;;;;;;;3.10;2.58;;;;;;;;;;5066252;28;20036;-40
2023/01/18 05:22:21;;;;;;;3.03;2.42;;;;;;;;;;5065398;28;20541;-40
2023/01/18 05:24:47;;;;;;;5.38;3.35;;;;;;;;;;5068856;28;20033;-40
2023/01/18 05:27:13;;;;;;;5.82;3.47;;;;;;;;;;5067298;28;20044;-40
2023/01/18 05:29:39;;;;;;;3.67;2.83;;;;;;;;;;5067370;28;20048;-41
2023/01/18 05:32:09;;;;;;;2.75;2.30;;;;;;;;;;5066146;28;20416;-43
2023/01/18 05:34:34;;;;;;;3.00;2.70;;;;;;;;;;5060784;28;20056;-40
2023/01/18 05:37:00;;;;;;;4.03;2.97;;;;;;;;;;5067011;28;20033;-40
2023/01/18 05:39:25;;;;;;;3.60;2.95;;;;;;;;;;5066209;28;20052;-39
2023/01/18 05:41:51;;;;;;;3.05;2.70;;;;;;;;;;5067045;28;20028;-41
2023/01/18 05:44:16;;;;;;;15.10;11.18;;;;;;;;;;5058407;28;20048;-40
2023/01/18 05:46:41;;;;;;;14.50;9.95;;;;;;;;;;5063360;28;20530;-40
2023/01/18 05:49:07;;;;;;;14.10;9.88;;;;;;;;;;5061262;28;20052;-40
2023/01/18 05:51:32;;;;;;;18.40;11.77;;;;;;;;;;5063446;28;20130;-42
2023/01/18 05:53:58;;;;;;;23.23;15.00;;;;;;;;;;5062218;28;20617;-40
2023/01/18 05:56:23;;;;;;;23.85;13.45;;;;;;;;;;5062053;28;20111;-40
2023/01/18 05:58:48;;;;;;;14.82;9.90;;;;;;;;;;5064966;28;20044;-39
2023/01/18 06:01:14;;;;;;;7.70;5.28;;;;;;;;;;5065571;28;20469;-41
2023/01/18 06:03:40;;;;;;;7.43;2.75;;;;;;;;;;5061930;28;20075;-43
2023/01/18 06:06:05;;;;;;;1.98;1.85;;;;;;;;;;5066347;28;20450;-40
2023/01/18 06:08:31;;;;;;;3.13;2.10;;;;;;;;;;5064032;28;20584;-39
2023/01/18 06:10:58;;;;;;;2.95;1.92;;;;;;;;;;5062825;28;20111;-45
2023/01/18 06:13:28;;;;;;;2.00;1.67;;;;;;;;;;5064249;28;20090;-39
2023/01/18 06:15:55;;;;;;;5.03;1.70;;;;;;;;;;5064949;28;20037;-40
2023/01/18 06:18:22;;;;;;;2.53;2.33;;;;;;;;;;5061160;28;20059;-40
2023/01/18 06:20:48;;;;;;;2.42;2.22;;;;;;;;;;5063020;28;20031;-44
2023/01/18 06:23:13;;;;;;;3.67;3.40;;;;;;;;;;5058477;28;20044;-39
2023/01/18 06:25:38;;;;;;;6.22;4.55;;;;;;;;;;5061515;28;20100;-43
2023/01/18 06:28:05;;;;;;;8.15;5.88;;;;;;;;;;5062804;28;20033;-40
2023/01/18 06:30:31;;;;;;;5.13;4.65;;;;;;;;;;5063001;28;20788;-40
2023/01/18 06:32:56;;;;;;;7.20;2.40;;;;;;;;;;5062843;28;20041;-41
2023/01/18 06:35:22;;;;;;;4.85;1.90;;;;;;;;;;5059742;28;20092;-40
2023/01/18 06:37:47;;;;;;;2.65;2.45;;;;;;;;;;5066522;28;20041;-40
2023/01/18 06:40:13;;;;;;;16.33;8.48;;;;;;;;;;5065236;28;20443;-41
2023/01/18 06:42:39;;;;;;;29.13;25.75;;;;;;;;;;5063732;28;20046;-40
2023/01/18 06:45:05;;;;;;;25.42;21.55;;;;;;;;;;5062087;28;20477;-41
2023/01/18 06:47:30;;;;;;;7.30;6.68;;;;;;;;;;5061203;28;20044;-41
2023/01/18 06:49:55;;;;;;;12.55;11.30;;;;;;;;;;5062358;28;20024;-40
2023/01/18 06:52:21;;;;;;;8.68;7.72;;;;;;;;;;5063000;28;20035;-40
2023/01/18 06:54:46;;;;;;;8.68;6.80;;;;;;;;;;5063418;28;20033;-39
2023/01/18 06:57:12;;;;;;;12.13;6.88;;;;;;;;;;5061996;28;20032;-40
2023/01/18 06:59:38;;;;;;;22.90;12.70;;;;;;;;;;5060373;28;20115;-40
2023/01/18 07:02:04;;;;;;;32.40;17.83;;;;;;;;;;5057127;28;20032;-40
2023/01/18 07:04:31;;;;;;;23.35;15.23;;;;;;;;;;5060323;28;20048;-40
2023/01/18 07:06:57;;;;;;;23.08;12.75;;;;;;;;;;5057200;28;20036;-40
2023/01/18 07:09:22;;;;;;;14.82;10.05;;;;;;;;;;5065562;28;20055;-40
2023/01/18 07:11:48;;;;;;;4.85;4.22;;;;;;;;;;5063507;28;20737;-40
2023/01/18 07:14:14;;;;;;;3.80;3.50;;;;;;;;;;5060937;28;20083;-40
2023/01/18 07:16:40;;;;;;;4.60;3.42;;;;;;;;;;5064707;28;20044;-40
2023/01/18 07:19:05;;;;;;;6.68;3.08;;;;;;;;;;5065898;28;20404;-40
2023/01/18 07:21:31;;;;;;;2.72;2.47;;;;;;;;;;5066262;28;20059;-40
2023/01/18 07:23:57;;;;;;;5.32;4.78;;;;;;;;;;5061257;28;20048;-40
2023/01/18 07:26:24;;;;;;;6.38;4.72;;;;;;;;;;5066460;28;20036;-40
2023/01/18 07:28:49;;;;;;;5.40;4.13;;;;;;;;;;5063686;28;20052;-40
2023/01/18 07:31:16;;;;;;;5.55;4.85;;;;;;;;;;5063945;28;20040;-40
2023/01/18 07:33:42;;;;;;;8.70;4.82;;;;;;;;;;5064514;28;20040;-40
2023/01/18 07:36:09;;;;;;;9.07;5.00;;;;;;;;;;5062113;28;20043;-39
2023/01/18 07:38:35;;;;;;;8.23;3.80;;;;;;;;;;5065575;28;20037;-40
2023/01/18 07:41:07;;;;;;;4.65;3.53;;;;;;;;;;5061316;28;20062;-40
2023/01/18 07:43:33;;;;;;;2.85;2.50;;;;;;;;;;5062530;28;20041;-39
2023/01/18 07:45:59;;;;;;;3.33;2.85;;;;;;;;;;5063559;28;20053;-44
2023/01/18 07:48:26;;;;;;;3.30;3.00;;;;;;;;;;5065567;28;20404;-41
2023/01/18 07:50:54;;;;;;;3.05;2.50;;;;;;;;;;5065766;28;20028;-41
2023/01/18 07:53:20;;;;;;;5.30;2.15;;;;;;;;;;5065614;28;20037;-39
2023/01/18 07:55:46;;;;;;;7.45;4.63;;;;;;;;;;5064863;28;20020;-43
2023/01/18 07:58:11;;;;;;;8.52;5.43;;;;;;;;;;5061232;28;20042;-40
2023/01/18 08:00:37;;;;;;;16.77;7.22;;;;;;;;;;5063228;28;20052;-40
2023/01/18 08:03:02;;;;;;;21.13;7.55;;;;;;;;;;5064237;28;20094;-40
2023/01/18 08:05:28;;;;;;;15.73;8.02;;;;;;;;;;5063832;28;20099;-40
2023/01/18 08:07:54;;;;;;;12.07;10.18;;;;;;;;;;5065168;28;20055;-40
2023/01/18 08:10:20;;;;;;;14.75;8.30;;;;;;;;;;5068742;28;20704;-40
2023/01/18 08:12:45;;;;;;;8.98;5.90;;;;;;;;;;5063788;28;20033;-40
2023/01/18 08:15:11;;;;;;;10.88;9.77;;;;;;;;;;5066078;28;20806;-40
2023/01/18 08:17:37;;;;;;;11.25;8.73;;;;;;;;;;5067641;28;20492;-40
2023/01/18 08:20:04;;;;;;;15.55;8.45;;;;;;;;;;5068500;28;20036;-40
2023/01/18 08:22:30;;;;;;;14.43;8.60;;;;;;;;;;5063807;28;20048;-40
2023/01/18 08:24:56;;;;;;;9.75;6.53;;;;;;;;;;5066219;28;20028;-40
2023/01/18 08:27:21;;;;;;;16.55;7.07;;;;;;;;;;5066974;28;20031;-40
2023/01/18 08:29:47;;;;;;;9.02;5.90;;;;;;;;;;5052239;28;20029;-40
2023/01/18 08:32:13;;;;;;;11.95;6.15;;;;;;;;;;5069799;28;20083;-40
2023/01/18 08:34:38;;;;;;;13.15;7.68;;;;;;;;;;5068590;28;20041;-40
2023/01/18 08:37:04;;;;;;;11.35;7.03;;;;;;;;;;5067650;28;20146;-40
2023/01/18 08:39:30;;;;;;;9.05;6.28;;;;;;;;;;5067236;28;20070;-40
2023/01/18 08:41:55;;;;;;;14.43;6.35;;;;;;;;;;5066439;28;20032;-40
2023/01/18 08:44:20;;;;;;;11.77;6.60;;;;;;;;;;5063934;28;20041;-40
2023/01/18 08:46:46;;;;;;;10.07;5.88;;;;;;;;;;5067544;28;20024;-43
2023/01/18 08:49:11;;;;;;;7.60;5.03;;;;;;;;;;5067339;28;20068;-40
2023/01/18 08:51:37;;;;;;;6.50;5.18;;;;;;;;;;5066011;28;20118;-40
2023/01/18 08:54:05;;;;;;;9.80;5.43;;;;;;;;;;5067201;28;20416;-40
2023/01/18 08:56:31;;;;;;;8.15;5.70;;;;;;;;;;5068262;28;20447;-41
2023/01/18 08:58:56;;;;;;;4.00;3.60;;;;;;;;;;5066520;28;20172;-43
2023/01/18 09:01:22;;;;;;;11.73;8.07;;;;;;;;;;5067990;28;20043;-40
2023/01/18 09:03:49;;;;;;;16.60;7.63;;;;;;;;;;5067406;28;20055;-40
2023/01/18 09:06:15;;;;;;;7.60;5.25;;;;;;;;;;5065906;28;20040;-40
2023/01/18 09:08:41;;;;;;;5.25;3.55;;;;;;;;;;5068289;28;20055;-40
2023/01/18 09:11:09;;;;;;;5.95;3.45;;;;;;;;;;5064590;28;20477;-40
2023/01/18 09:13:34;;;;;;;4.88;4.22;;;;;;;;;;5047364;28;20428;-40
2023/01/18 09:16:06;;;;;;;4.13;3.72;;;;;;;;;;5063125;28;20047;-40
2023/01/18 09:18:32;;;;;;;4.90;4.13;;;;;;;;;;5064937;28;20036;-41
2023/01/18 09:20:58;;;;;;;6.25;4.75;;;;;;;;;;5067176;28;20031;-42
2023/01/18 09:23:24;;;;;;;13.35;4.60;;;;;;;;;;5068108;28;20119;-40
2023/01/18 09:26:07;;;;;;;4.20;3.45;;;;;;;;;;5065994;28;20744;-40
2023/01/18 09:28:33;;;;;;;2.42;2.22;;;;;;;;;;5067932;28;20045;-40
2023/01/18 09:31:04;;;;;;;5.97;2.83;;;;;;;;;;5048709;28;20040;-40
2023/01/18 09:33:29;;;;;;;2.97;2.47;;;;;;;;;;5063014;28;20036;-39
2023/01/18 09:35:56;;;;;;;7.88;2.67;;;;;;;;;;5068258;28;20101;-40
2023/01/18 09:38:22;;;;;;;2.97;2.15;;;;;;;;;;5068438;28;20048;-40
2023/01/18 09:40:49;;;;;;;2.10;1.40;;;;;;;;;;5066570;28;20396;-39
2023/01/18 09:43:30;;;;;;;1.50;1.40;;;;;;;;;;5066032;28;20497;-43
2023/01/18 09:45:56;;;;;;;3.53;1.30;;;;;;;;;;5067448;28;20411;-40
2023/01/18 09:48:31;;;;;;;4.68;1.90;;;;;;;;;;5066171;28;20055;-40
2023/01/18 09:51:07;;;;;;;3.42;2.00;;;;;;;;;;5065702;28;20039;-41
2023/01/18 09:53:56;;;;;;;3.25;1.73;;;;;;;;;;5047386;28;20039;-40
2023/01/18 09:56:26;;;;;;;5.45;2.05;;;;;;;;;;4997665;28;20081;-40
2023/01/18 09:59:04;;;;;;;1.73;1.60;;;;;;;;;;4982366;28;20038;-40
2023/01/18 10:01:35;;;;;;;1.65;1.55;;;;;;;;;;4989444;28;20042;-40
2023/01/18 10:04:07;;;;;;;2.00;1.70;;;;;;;;;;4991072;28;20522;-40
2023/01/18 10:06:51;;;;;;;1.55;1.45;;;;;;;;;;4992673;28;20103;-41
2023/01/18 10:09:21;;;;;;;1.50;1.40;;;;;;;;;;4993164;28;20038;-40
2023/01/18 10:11:55;;;;;;;4.35;1.50;;;;;;;;;;4993267;28;20088;-40
2023/01/18 10:14:28;;;;;;;2.00;1.67;;;;;;;;;;4986447;28;20233;-40
2023/01/18 10:16:56;;;;;;;;;;;;;;;;;;4994733;28;20446;-40
2023/01/18 10:19:27;;;;;;;0.85;0.85;;;;;;;;;;5013313;28;19976;-39
2023/01/18 10:22:14;;;;;;;3.05;1.42;;;;;;;;;;4989700;28;20065;-40
2023/01/18 10:25:03;;;;;;;2.58;1.40;;;;;;;;;;4986320;28;20562;-40
2023/01/18 10:27:35;;;;;;;2.35;1.33;;;;;;;;;;4986752;28;20108;-40
2023/01/18 10:30:09;;;;;;;1.42;1.27;;;;;;;;;;4994465;28;20030;-40
2023/01/18 10:32:37;;;;;;;3.95;1.55;;;;;;;;;;4998964;28;20045;-40
2023/01/18 10:35:13;;;;;;;4.75;1.40;;;;;;;;;;5065371;28;20047;-41
2023/01/18 10:37:44;;;;;;;2.13;1.85;;;;;;;;;;5064882;28;20512;-45
2023/01/18 10:40:11;;;;;;;4.45;1.35;;;;;;;;;;5065088;28;20024;-44
2023/01/18 10:42:48;;;;;;;1.92;1.55;;;;;;;;;;5065097;28;20044;-40
2023/01/18 10:45:20;;;;;;;3.03;1.45;;;;;;;;;;5063839;28;20039;-43
2023/01/18 10:47:50;;;;;;;3.72;1.55;;;;;;;;;;5065646;28;20179;-42
2023/01/18 10:50:18;;;;;;;1.67;1.25;;;;;;;;;;5063682;28;20511;-43
2023/01/18 10:52:44;;;;;;;6.22;1.58;;;;;;;;;;5064262;28;20040;-40
2023/01/18 10:55:15;;;;;;;1.77;1.35;;;;;;;;;;5065174;28;20396;-40
2023/01/18 10:57:50;;;;;;;2.17;1.40;;;;;;;;;;5067278;28;20037;-41
2023/01/18 11:00:22;;;;;;;2.45;1.20;;;;;;;;;;5065339;28;20388;-40
2023/01/18 11:02:49;;;;;;;3.97;1.50;;;;;;;;;;5061937;28;20464;-39
2023/01/18 11:05:31;;;;;;;1.70;1.48;;;;;;;;;;5059839;28;20032;-40
2023/01/18 11:08:23;;;;;;;7.57;1.25;;;;;;;;;;5061102;28;20044;-40
2023/01/18 11:11:13;;;;;;;1.58;1.40;;;;;;;;;;5065465;28;20036;-41
2023/01/18 11:13:42;;;;;;;0.93;0.93;;;;;;;;;;5065475;28;20051;-40
2023/01/18 11:16:16;;;;;;;6.93;1.65;;;;;;;;;;5066317;28;20040;-39
2023/01/18 11:18:57;;;;;;;1.40;1.30;;;;;;;;;;5062128;28;20105;-40
2023/01/18 11:21:23;;;;;;;1.73;1.30;;;;;;;;;;5069362;28;20476;-41
2023/01/18 11:23:50;;;;;;;1.25;1.15;;;;;;;;;;5065078;28;20051;-40
2023/01/18 11:26:18;;;;;;;2.25;1.20;;;;;;;;;;5064999;28;20032;-40
2023/01/18 11:28:52;;;;;;;3.55;1.08;;;;;;;;;;5064149;28;20050;-40
2023/01/18 11:31:26;;;;;;;0.77;0.77;;;;;;;;;;5063615;28;20065;-40
2023/01/18 11:33:54;;;;;;;0.98;0.57;;;;;;;;;;5063600;28;20045;-40
2023/01/18 11:36:33;;;;;;;1.50;0.90;;;;;;;;;;5065222;28;20053;-40
2023/01/18 11:39:26;;;;;;;0.70;0.68;;;;;;;;;;5062226;28;20052;-40
2023/01/18 11:42:15;;;;;;;3.28;0.77;;;;;;;;;;5063718;28;20488;-40
2023/01/18 11:45:03;;;;;;;8.75;5.78;;;;;;;;;;5065965;28;20060;-40
2023/01/18 11:47:39;;;;;;;3.17;1.63;;;;;;;;;;5060486;28;25856;-40
2023/01/18 11:50:23;;;;;;;3.95;0.70;;;;;;;;;;5063851;28;20123;-40
2023/01/18 11:52:55;;;;;;;0.98;0.75;;;;;;;;;;5063528;28;20102;-40
2023/01/18 11:55:46;;;;;;;1.00;1.00;;;;;;;;;;5063956;28;20028;-40
2023/01/18 11:58:39;;;;;;;2.08;1.63;;;;;;;;;;5059304;28;20040;-40
2023/01/18 12:01:23;;;;;;;2.03;1.85;;;;;;;;;;5064030;28;20041;-40
2023/01/18 12:03:59;;;;;;;2.10;1.90;;;;;;;;;;5061431;28;20043;-40
2023/01/18 12:06:42;;;;;;;1.73;1.63;;;;;;;;;;5063257;28;20111;-40
2023/01/18 12:09:26;;;;;;;1.60;1.02;;;;;;;;;;5062188;28;20044;-40
2023/01/18 12:12:15;;;;;;;1.92;1.73;;;;;;;;;;5063425;28;20063;-40
2023/01/18 12:15:09;;;;;;;3.42;2.28;;;;;;;;;;5062824;28;20431;-40
2023/01/18 12:17:56;;;;;;;4.65;1.83;;;;;;;;;;5061949;28;20508;-40
2023/01/18 12:20:36;;;;;;;4.43;2.85;;;;;;;;;;5066142;28;20103;-40
2023/01/18 12:23:12;;;;;;;2.47;2.28;;;;;;;;;;5065756;28;20044;-40
2023/01/18 12:25:37;;;;;;;2.40;1.70;;;;;;;;;;5066559;28;20625;-42
2023/01/18 12:28:30;;;;;;;1.58;1.08;;;;;;;;;;5065682;28;20041;-40
2023/01/18 12:30:56;;;;;;;1.52;1.42;;;;;;;;;;5062611;28;20424;-40
2023/01/18 12:34:00;;;;;;;8.27;1.30;;;;;;;;;;5062967;28;20536;-40
2023/01/18 12:36:50;;;;;;;1.35;1.05;;;;;;;;;;5063348;28;20045;-40
2023/01/18 12:39:46;;;;;;;1.13;0.70;;;;;;;;;;5062117;28;20484;-40
2023/01/18 12:42:39;;;;;;;0.65;0.60;;;;;;;;;;5062614;28;20189;-40
2023/01/18 12:45:26;;;;;;;1.90;0.70;;;;;;;;;;5059266;28;20493;-40
2023/01/18 12:48:17;;;;;;;0.95;0.65;;;;;;;;;;5062772;28;20052;-40
2023/01/18 12:50:48;;;;;;;1.90;0.93;;;;;;;;;;5062939;28;20039;-40
2023/01/18 12:53:48;;;;;;;1.13;1.13;;;;;;;;;;5062243;28;20127;-40
2023/01/18 12:56:26;;;;;;;0.60;0.60;;;;;;;;;;5067184;28;20476;-40
2023/01/18 12:58:58;;;;;;;1.02;0.82;;;;;;;;;;5067008;28;20040;-39
2023/01/18 13:01:27;;;;;;;3.80;0.80;;;;;;;;;;5068132;28;20020;-40
2023/01/18 13:03:57;;;;;;;1.05;1.05;;;;;;;;;;5066225;28;20082;-40
2023/01/18 13:06:24;;;;;;;0.82;0.80;;;;;;;;;;5062757;28;20017;-40
2023/01/18 13:08:57;;;;;;;1.10;1.00;;;;;;;;;;5065048;28;20052;-40
2023/01/18 13:11:35;;;;;;;0.60;0.60;;;;;;;;;;5067116;28;20427;-40
2023/01/18 13:14:09;;;;;;;0.63;0.57;;;;;;;;;;5063980;28;20075;-40
2023/01/18 13:16:45;;;;;;;0.82;0.55;;;;;;;;;;5067331;28;20020;-40
2023/01/18 13:19:31;;;;;;;0.63;0.63;;;;;;;;;;5064734;28;20033;-40
2023/01/18 13:21:58;;;;;;;0.70;0.70;;;;;;;;;;5066908;28;20039;-40
2023/01/18 13:24:30;;;;;;;1.92;0.52;;;;;;;;;;5063738;28;20052;-40
2023/01/18 13:27:09;;;;;;;0.50;0.50;;;;;;;;;;5067576;28;20388;-40
2023/01/18 13:29:35;;;;;;;3.35;0.75;;;;;;;;;;5067124;28;20128;-40
2023/01/18 13:32:01;;;;;;;1.10;1.08;;;;;;;;;;5064627;28;20163;-40
2023/01/18 13:34:32;;;;;;;0.50;0.50;;;;;;;;;;5063016;28;20221;-41
2023/01/18 13:36:58;;;;;;;1.25;0.88;;;;;;;;;;5064793;28;20036;-40
2023/01/18 13:39:26;;;;;;;0.40;0.40;;;;;;;;;;5067174;28;20051;-41
2023/01/18 13:42:03;;;;;;;1.70;1.50;;;;;;;;;;5068679;28;20043;-40
2023/01/18 13:44:44;;;;;;;1.63;1.52;;;;;;;;;;5065258;28;20643;-40
2023/01/18 13:47:44;;;;;;;0.60;0.60;;;;;;;;;;5065561;28;20037;-39
2023/01/18 13:50:30;;;;;;;1.27;0.70;;;;;;;;;;5059328;28;20082;-39
2023/01/18 13:53:20;;;;;;;0.52;0.52;;;;;;;;;;5067212;28;20090;-40
2023/01/18 13:56:07;;;;;;;1.10;1.00;;;;;;;;;;5055754;28;20090;-41
2023/01/18 13:58:36;;;;;;;0.50;0.50;;;;;;;;;;5065210;28;20165;-42
2023/01/18 14:01:05;;;;;;;1.42;0.75;;;;;;;;;;5066391;28;20031;-41
2023/01/18 14:03:33;;;;;;;0.63;0.63;;;;;;;;;;5067116;28;20059;-40
2023/01/18 14:06:07;;;;;;;0.60;0.60;;;;;;;;;;5061740;28;20126;-41
2023/01/18 14:08:35;;;;;;;0.73;0.73;;;;;;;;;;5066324;28;20075;-42
2023/01/18 14:11:06;;;;;;;3.28;1.20;;;;;;;;;;5063731;28;20538;-41
2023/01/18 14:13:51;;;;;;;0.80;0.80;;;;;;;;;;5063701;28;21048;-41
2023/01/18 14:16:51;;;;;;;1.30;0.70;;;;;;;;;;4996050;28;20498;-41
2023/01/18 14:19:19;;;;;;;0.80;0.80;;;;;;;;;;4988401;28;20048;-41
2023/01/18 14:22:06;;;;;;;0.20;0.20;;;;;;;;;;4987606;28;20077;-41
2023/01/18 14:24:48;;;;;;;1.35;1.00;;;;;;;;;;4990193;28;20496;-41
2023/01/18 14:27:20;;;;;;;1.50;1.00;;;;;;;;;;4992552;28;20375;-41
2023/01/18 14:29:59;;;;;;;1.20;1.10;;;;;;;;;;4994253;28;20161;-41
2023/01/18 14:32:30;;;;;;;1.08;0.95;;;;;;;;;;4990386;28;20129;-43
2023/01/18 14:35:00;;;;;;;1.30;1.20;;;;;;;;;;4990778;28;20405;-41
2023/01/18 14:37:27;;;;;;;0.93;0.85;;;;;;;;;;4985330;28;20483;-41
2023/01/18 14:40:11;;;;;;;1.02;1.00;;;;;;;;;;4991418;28;20038;-41
2023/01/18 14:42:59;;;;;;;1.42;1.10;;;;;;;;;;4987936;28;20502;-41
2023/01/18 14:45:29;;;;;;;4.22;1.23;;;;;;;;;;4988116;28;20484;-41
2023/01/18 14:48:09;;;;;;;0.80;0.80;;;;;;;;;;4991218;28;20078;-41
2023/01/18 14:50:41;;;;;;;3.85;1.20;;;;;;;;;;4989861;28;20597;-40
2023/01/18 14:53:13;;;;;;;0.60;0.60;;;;;;;;;;5010169;28;20051;-41
2023/01/18 14:55:39;;;;;;;4.97;1.20;;;;;;;;;;5062783;28;20047;-41
2023/01/18 14:58:16;;;;;;;0.60;0.60;;;;;;;;;;5065673;28;20051;-40
2023/01/18 15:00:50;;;;;;;0.77;0.77;;;;;;;;;;5064503;28;20032;-41
2023/01/18 15:03:28;;;;;;;1.38;1.00;;;;;;;;;;5063119;28;20051;-45
2023/01/18 15:06:11;;;;;;;2.08;1.30;;;;;;;;;;5063191;28;20081;-41
2023/01/18 15:08:38;;;;;;;1.73;0.93;;;;;;;;;;5065479;28;20137;-42
2023/01/18 15:11:05;;;;;;;0.70;0.70;;;;;;;;;;5066153;28;20112;-41
2023/01/18 15:13:32;;;;;;;0.93;0.93;;;;;;;;;;5065952;28;20479;-40
2023/01/18 15:16:00;;;;;;;0.98;0.98;;;;;;;;;;5064290;28;20020;-40
2023/01/18 15:18:27;;;;;;;2.00;1.63;;;;;;;;;;5065825;28;20087;-41
2023/01/18 15:21:01;;;;;;;1.50;1.40;;;;;;;;;;5064175;28;20035;-41
2023/01/18 15:23:27;;;;;;;1.77;1.45;;;;;;;;;;5063703;28;20447;-41
2023/01/18 15:25:53;;;;;;;2.63;1.80;;;;;;;;;;5065603;28;20077;-41
2023/01/18 15:28:20;;;;;;;2.30;1.60;;;;;;;;;;5064911;28;20142;-41
2023/01/18 15:30:53;;;;;;;1.33;1.27;;;;;;;;;;5065135;28;20045;-41
2023/01/18 15:33:21;;;;;;;3.85;1.33;;;;;;;;;;5067312;28;20131;-41